createdAt,value
2017-03-06T00:05:44.244Z,988.4
2017-03-06T00:15:55.640Z,988.3
2017-03-06T00:26:07.050Z,988.4
2017-03-06T00:36:18.345Z,988.4
2017-03-06T00:46:29.637Z,988.5
2017-03-06T00:56:40.897Z,988.6
2017-03-06T01:06:52.199Z,988.5
2017-03-06T01:17:03.432Z,988.6
2017-03-06T01:27:14.645Z,988.5
2017-03-06T01:37:25.957Z,988.5
2017-03-06T01:47:37.233Z,988.6
2017-03-06T01:57:48.445Z,988.4
2017-03-06T02:07:59.693Z,988.4
2017-03-06T02:18:10.966Z,988.3
2017-03-06T02:28:22.193Z,988.4
2017-03-06T02:38:33.432Z,988.5
2017-03-06T02:48:44.747Z,988.4
2017-03-06T02:58:56.121Z,988.5
2017-03-06T03:09:07.421Z,988.4
2017-03-06T03:19:18.851Z,988.4
2017-03-06T03:29:30.144Z,988.4
2017-03-06T03:39:41.476Z,988.4
2017-03-06T03:49:52.677Z,988.5
2017-03-06T04:00:03.937Z,988.5
2017-03-06T04:10:15.212Z,988.5
2017-03-06T04:20:26.443Z,988.5
2017-03-06T04:30:37.682Z,988.7
2017-03-06T04:40:48.966Z,988.6
2017-03-06T04:51:00.247Z,988.8
2017-03-06T05:01:11.530Z,988.7
2017-03-06T05:11:22.799Z,988.8
2017-03-06T05:21:34.111Z,988.8
2017-03-06T05:31:45.410Z,988.7
2017-03-06T05:41:56.722Z,988.8
2017-03-06T05:52:08.065Z,988.9
2017-03-06T06:02:19.409Z,988.8
2017-03-06T06:12:30.815Z,988.7
2017-03-06T06:22:42.183Z,988.7
2017-03-06T06:32:53.597Z,988.6
2017-03-06T06:43:04.976Z,988.6
2017-03-06T06:53:16.351Z,988.7
2017-03-06T07:03:27.698Z,988.6
2017-03-06T07:13:39.015Z,988.6
2017-03-06T07:23:50.389Z,988.7
2017-03-06T07:34:01.613Z,988.6
2017-03-06T07:44:12.922Z,988.5
2017-03-06T07:54:24.208Z,988.5
2017-03-06T08:04:35.416Z,988.5
2017-03-06T08:14:46.530Z,988.5
2017-03-06T08:24:57.437Z,988.4
2017-03-06T08:35:08.217Z,988.4
2017-03-06T08:45:18.900Z,988.4
2017-03-06T08:55:29.616Z,988.3
2017-03-06T09:05:40.335Z,988.3
2017-03-06T09:15:50.950Z,988.3
2017-03-06T09:26:01.546Z,988.3
2017-03-06T09:36:12.191Z,988.4
2017-03-06T09:46:22.610Z,988.2
2017-03-06T09:56:32.906Z,988.3
2017-03-06T10:06:43.240Z,988.5
2017-03-06T10:16:53.661Z,988.4
2017-03-06T10:27:04.323Z,988.4
2017-03-06T10:37:15.020Z,988.5
2017-03-06T10:47:25.765Z,988.6
2017-03-06T10:57:36.602Z,988.6
2017-03-06T11:07:47.461Z,988.5
2017-03-06T11:17:58.289Z,988.6
2017-03-06T11:28:08.802Z,988.7
2017-03-06T11:38:19.086Z,988.6
2017-03-06T11:48:29.325Z,988.6
2017-03-06T11:58:39.621Z,988.6
2017-03-06T12:08:50.039Z,988.7
2017-03-06T12:19:00.379Z,988.7
2017-03-06T12:29:10.612Z,988.8
2017-03-06T12:39:20.772Z,988.8
2017-03-06T12:49:30.834Z,988.9
2017-03-06T12:59:40.765Z,988.9
2017-03-06T13:09:50.875Z,988.9
2017-03-06T13:20:01.111Z,989
2017-03-06T13:30:11.379Z,989
2017-03-06T13:40:21.637Z,989.2
2017-03-06T13:50:32.160Z,989.2
2017-03-06T14:00:42.781Z,989.2
2017-03-06T14:10:53.406Z,989.3
2017-03-06T14:21:04.026Z,989.5
2017-03-06T14:31:14.666Z,989.5
2017-03-06T14:41:25.374Z,989.6
2017-03-06T14:51:36.148Z,989.7
2017-03-06T15:01:46.981Z,989.9
2017-03-06T15:11:57.817Z,990
2017-03-06T15:22:08.678Z,990.1
2017-03-06T15:32:19.584Z,990.3
2017-03-06T15:42:30.447Z,990.4
2017-03-06T15:52:41.260Z,990.4
2017-03-06T16:02:52.040Z,990.6
2017-03-06T16:13:02.738Z,990.8
2017-03-06T16:23:13.518Z,990.9
2017-03-06T16:33:24.366Z,991
2017-03-06T16:43:35.215Z,991.1
2017-03-06T16:53:46.101Z,991.2
2017-03-06T17:03:57.086Z,991.3
2017-03-06T17:14:08.142Z,991.5
2017-03-06T17:24:19.300Z,991.6
2017-03-06T17:34:30.609Z,991.9
2017-03-06T17:44:41.916Z,992
2017-03-06T17:54:53.195Z,992.4
2017-03-06T18:05:04.414Z,992.4
2017-03-06T18:15:15.629Z,992.6
2017-03-06T18:25:26.803Z,992.8
2017-03-06T18:35:37.984Z,992.9
2017-03-06T18:45:49.174Z,993
2017-03-06T18:56:00.381Z,993.3
2017-03-06T19:06:11.576Z,993.3
2017-03-06T19:16:22.834Z,993.5
2017-03-06T19:26:34.103Z,993.5
2017-03-06T19:36:45.412Z,993.6
2017-03-06T19:46:56.727Z,993.8
2017-03-06T19:57:08.033Z,994
2017-03-06T20:07:19.359Z,994.1
2017-03-06T20:17:30.695Z,994.3
2017-03-06T20:27:41.949Z,994.3
2017-03-06T20:37:53.183Z,994.6
2017-03-06T20:48:04.389Z,994.7
2017-03-06T20:58:15.652Z,994.8
2017-03-06T21:08:26.895Z,994.9
2017-03-06T21:18:38.163Z,995
2017-03-06T21:28:49.455Z,995.1
2017-03-06T21:39:00.789Z,995.2
2017-03-06T21:49:12.066Z,995.4
2017-03-06T21:59:23.435Z,995.5
2017-03-06T22:09:34.713Z,995.6
2017-03-06T22:19:45.976Z,995.8
2017-03-06T22:29:57.235Z,995.9
2017-03-06T22:40:08.554Z,996.1
2017-03-06T22:50:19.836Z,996.3
2017-03-06T23:00:31.117Z,996.3
2017-03-06T23:10:42.310Z,996.4
2017-03-06T23:20:53.504Z,996.5
2017-03-06T23:31:04.731Z,996.7
2017-03-06T23:41:15.952Z,996.7
2017-03-06T23:51:27.206Z,996.9
